createdAt,value
2023-01-22T00:01:50.671Z,991.2
2023-01-22T00:03:52.382Z,991.2
2023-01-22T00:09:57.216Z,991.2
2023-01-22T00:11:58.478Z,991.2
2023-01-22T00:13:59.604Z,991.1
2023-01-22T00:16:00.781Z,991.2
2023-01-22T00:18:01.984Z,991.1
2023-01-22T00:20:03.933Z,991.2
2023-01-22T00:22:05.964Z,991.1
2023-01-22T00:24:08.009Z,991.1
2023-01-22T00:26:09.090Z,991.1
2023-01-22T00:28:10.184Z,991.1
2023-01-22T00:30:11.650Z,991.2
2023-01-22T00:32:13.644Z,991.1
2023-01-22T00:36:16.379Z,991
2023-01-22T00:38:18.031Z,991.1
2023-01-22T00:40:19.851Z,991.1
2023-01-22T00:42:20.617Z,991.1
2023-01-22T00:44:21.786Z,991.1
2023-01-22T00:46:23.630Z,991
2023-01-22T00:48:25.374Z,991.1
2023-01-22T00:50:27.031Z,991.1
2023-01-22T00:52:28.148Z,991
2023-01-22T00:54:29.579Z,990.9
2023-01-22T00:56:31.001Z,991
2023-01-22T00:58:32.114Z,991
2023-01-22T01:00:33.273Z,991
2023-01-22T01:02:34.816Z,991
2023-01-22T01:04:36.609Z,991
2023-01-22T01:06:38.256Z,991.1
2023-01-22T01:08:40.195Z,991
2023-01-22T01:10:42.043Z,991
2023-01-22T01:12:43.143Z,991.1
2023-01-22T01:14:44.715Z,991.1
2023-01-22T01:16:46.003Z,991.1
2023-01-22T01:18:47.764Z,991.1
2023-01-22T01:20:49.455Z,991.1
2023-01-22T01:22:51.438Z,991.1
2023-01-22T01:24:52.951Z,991
2023-01-22T01:26:54.730Z,991
2023-01-22T01:28:55.828Z,990.9
2023-01-22T01:30:57.956Z,991
2023-01-22T01:35:01.225Z,991
2023-01-22T01:37:02.999Z,991
2023-01-22T01:39:04.290Z,990.9
2023-01-22T01:41:05.423Z,991
2023-01-22T01:43:06.788Z,990.9
2023-01-22T01:45:08.829Z,991
2023-01-22T01:47:10.185Z,991
2023-01-22T01:49:12.083Z,990.9
2023-01-22T01:51:13.507Z,990.9
2023-01-22T01:53:14.778Z,991
2023-01-22T01:55:16.224Z,991
2023-01-22T01:57:17.835Z,991
2023-01-22T01:59:19.736Z,991.1
2023-01-22T02:01:21.496Z,991
2023-01-22T02:03:23.335Z,991
2023-01-22T02:05:24.637Z,991
2023-01-22T02:07:26.216Z,991
2023-01-22T02:09:27.974Z,991
2023-01-22T02:11:29.076Z,991.1
2023-01-22T02:13:30.364Z,991.1
2023-01-22T02:17:33.487Z,991
2023-01-22T02:19:35.242Z,991
2023-01-22T02:21:36.548Z,991
2023-01-22T02:23:38.504Z,991.1
2023-01-22T02:25:39.939Z,991.1
2023-01-22T02:27:41.927Z,991.2
2023-01-22T02:29:43.807Z,991.1
2023-01-22T02:31:44.974Z,991.1
2023-01-22T02:33:46.070Z,991.1
2023-01-22T02:35:47.403Z,991.1
2023-01-22T02:37:48.895Z,991.2
2023-01-22T02:39:50.093Z,991.2
2023-01-22T02:41:51.401Z,991.2
2023-01-22T02:43:52.847Z,991.1
2023-01-22T02:45:54.365Z,991.1
2023-01-22T02:47:55.497Z,991.2
2023-01-22T02:49:56.801Z,991.1
2023-01-22T02:51:58.693Z,991.2
2023-01-22T02:53:59.975Z,991.2
2023-01-22T02:56:01.550Z,991.2
2023-01-22T02:58:03.106Z,991.2
2023-01-22T03:00:04.701Z,991.1
2023-01-22T03:02:06.429Z,991.1
2023-01-22T03:04:08.086Z,991.1
2023-01-22T03:06:09.206Z,991.1
2023-01-22T03:08:10.832Z,991
2023-01-22T03:10:12.293Z,991.1
2023-01-22T03:12:14.200Z,991
2023-01-22T03:12:58.142Z,991
2023-01-22T03:14:59.732Z,991
2023-01-22T03:17:01.089Z,991.1
2023-01-22T03:21:04.365Z,991
2023-01-22T03:23:05.982Z,991.1
2023-01-22T03:25:07.309Z,991.1
2023-01-22T03:27:08.842Z,991.1
2023-01-22T03:31:11.962Z,991.1
2023-01-22T03:33:13.920Z,991
2023-01-22T03:35:15.764Z,991
2023-01-22T03:37:17.242Z,991
2023-01-22T03:39:19.243Z,991
2023-01-22T03:41:21.108Z,991.1
2023-01-22T03:43:22.417Z,991
2023-01-22T03:45:23.842Z,991
2023-01-22T03:47:25.554Z,991.1
2023-01-22T03:49:27.150Z,991
2023-01-22T03:51:28.351Z,991.1
2023-01-22T03:53:29.723Z,991
2023-01-22T03:55:31.538Z,991
2023-01-22T03:57:33.242Z,991
2023-01-22T03:59:35.224Z,991
2023-01-22T04:03:38.684Z,991
2023-01-22T04:05:40.187Z,991.1
2023-01-22T04:07:41.770Z,991.1
2023-01-22T04:09:43.335Z,991.1
2023-01-22T04:13:47.058Z,991.2
2023-01-22T04:15:48.747Z,991.3
2023-01-22T04:17:50.672Z,991.2
2023-01-22T04:19:51.874Z,991.1
2023-01-22T04:21:53.643Z,991.1
2023-01-22T04:23:54.995Z,991.2
2023-01-22T04:25:56.181Z,991.1
2023-01-22T04:27:57.988Z,991.2
2023-01-22T04:29:59.137Z,991.2
2023-01-22T04:32:00.225Z,991.2
2023-01-22T04:34:01.603Z,991.2
2023-01-22T04:36:02.828Z,991.2
2023-01-22T04:38:04.319Z,991.3
2023-01-22T04:40:05.546Z,991.2
2023-01-22T04:42:07.521Z,991.3
2023-01-22T04:44:09.460Z,991.3
2023-01-22T04:46:10.861Z,991.3
2023-01-22T04:48:12.331Z,991.3
2023-01-22T04:50:14.205Z,991.3
2023-01-22T04:52:16.228Z,991.4
2023-01-22T04:56:19.863Z,991.3
2023-01-22T04:58:21.534Z,991.4
2023-01-22T05:00:23.041Z,991.4
2023-01-22T05:02:24.627Z,991.4
2023-01-22T05:04:25.797Z,991.4
2023-01-22T05:06:26.892Z,991.4
2023-01-22T05:08:28.664Z,991.4
2023-01-22T05:10:30.433Z,991.5
2023-01-22T05:12:32.104Z,991.5
2023-01-22T05:14:33.819Z,991.6
2023-01-22T05:16:35.471Z,991.5
2023-01-22T05:18:36.949Z,991.5
2023-01-22T05:20:38.248Z,991.5
2023-01-22T05:22:40.146Z,991.6
2023-01-22T05:24:41.916Z,991.6
2023-01-22T05:26:43.607Z,991.6
2023-01-22T05:28:45.514Z,991.6
2023-01-22T05:30:46.961Z,991.7
2023-01-22T05:32:48.187Z,991.6
2023-01-22T05:34:49.369Z,991.6
2023-01-22T05:36:50.723Z,991.7
2023-01-22T05:38:52.721Z,991.7
2023-01-22T05:40:54.359Z,991.6
2023-01-22T05:44:56.858Z,991.5
2023-01-22T05:46:58.119Z,991.6
2023-01-22T05:48:59.516Z,991.7
2023-01-22T05:51:01.345Z,991.7
2023-01-22T05:53:02.535Z,991.8
2023-01-22T05:55:04.354Z,991.7
2023-01-22T05:57:06.429Z,991.8
2023-01-22T05:59:07.699Z,991.7
2023-01-22T06:01:09.345Z,991.8
2023-01-22T06:03:11.237Z,991.8
2023-01-22T06:05:12.375Z,991.8
2023-01-22T06:07:13.873Z,991.8
2023-01-22T06:09:15.891Z,991.8
2023-01-22T06:11:17.505Z,991.8
2023-01-22T06:13:19.133Z,991.8
2023-01-22T06:15:20.502Z,991.9
2023-01-22T06:17:21.746Z,991.8
2023-01-22T06:19:23.354Z,991.8
2023-01-22T06:21:25.020Z,991.9
2023-01-22T06:23:26.812Z,991.9
2023-01-22T06:27:30.443Z,991.9
2023-01-22T06:29:31.526Z,991.9
2023-01-22T06:31:33.516Z,991.9
2023-01-22T06:33:35.069Z,991.9
2023-01-22T06:35:36.619Z,992
2023-01-22T06:37:38.487Z,991.9
2023-01-22T06:39:39.615Z,992
2023-01-22T06:41:40.669Z,992
2023-01-22T06:43:41.952Z,992
2023-01-22T06:45:43.083Z,992
2023-01-22T06:47:44.853Z,992.1
2023-01-22T06:49:46.168Z,992
2023-01-22T06:53:48.723Z,992.1
2023-01-22T06:55:50.538Z,992.1
2023-01-22T06:57:52.237Z,992.2
2023-01-22T06:59:53.690Z,992.2
2023-01-22T07:01:55.597Z,992.2
2023-01-22T07:04:06.352Z,992.3
2023-01-22T07:05:58.456Z,992.3
2023-01-22T07:08:00.206Z,992.2
2023-01-22T07:10:02.150Z,992.3
2023-01-22T07:12:03.341Z,992.4
2023-01-22T07:14:04.698Z,992.4
2023-01-22T07:16:06.525Z,992.4
2023-01-22T07:18:07.865Z,992.4
2023-01-22T07:20:09.210Z,992.4
2023-01-22T07:22:11.223Z,992.4
2023-01-22T07:26:14.946Z,992.5
2023-01-22T07:28:16.403Z,992.5
2023-01-22T07:30:17.793Z,992.6
2023-01-22T07:32:19.369Z,992.5
2023-01-22T07:34:21.117Z,992.6
2023-01-22T07:36:22.629Z,992.6
2023-01-22T07:38:24.517Z,992.6
2023-01-22T07:40:26.050Z,992.6
2023-01-22T07:42:27.791Z,992.6
2023-01-22T07:44:29.028Z,992.6
2023-01-22T07:46:30.277Z,992.6
2023-01-22T07:48:39.886Z,992.6
2023-01-22T07:50:33.278Z,992.6
2023-01-22T07:52:34.541Z,992.6
2023-01-22T07:54:36.458Z,992.6
2023-01-22T07:56:38.356Z,992.6
2023-01-22T07:58:40.039Z,992.6
2023-01-22T08:00:41.623Z,992.7
2023-01-22T08:02:42.978Z,992.7
2023-01-22T08:04:44.067Z,992.8
2023-01-22T08:06:45.256Z,992.7
2023-01-22T08:08:46.855Z,992.8
2023-01-22T08:10:48.012Z,992.9
2023-01-22T08:12:49.314Z,992.8
2023-01-22T08:14:50.419Z,992.8
2023-01-22T08:16:51.890Z,992.9
2023-01-22T08:18:53.196Z,992.9
2023-01-22T08:20:54.858Z,992.9
2023-01-22T08:22:56.327Z,992.8
2023-01-22T08:24:57.733Z,992.9
2023-01-22T08:26:59.720Z,993
2023-01-22T08:29:04.323Z,993
2023-01-22T08:31:02.078Z,992.9
2023-01-22T08:35:05.722Z,993
2023-01-22T08:37:07.740Z,993.1
2023-01-22T08:39:09.680Z,993.1
2023-01-22T08:41:11.478Z,993.1
2023-01-22T08:43:12.675Z,993.1
2023-01-22T08:45:14.665Z,993.1
2023-01-22T08:47:16.715Z,993.2
2023-01-22T08:49:17.937Z,993.1
2023-01-22T08:51:19.484Z,993.2
2023-01-22T08:53:21.088Z,993.3
2023-01-22T08:55:22.363Z,993.2
2023-01-22T08:57:24.117Z,993.3
2023-01-22T08:59:25.146Z,993.3
2023-01-22T09:01:26.229Z,993.2
2023-01-22T09:03:27.735Z,993.2
2023-01-22T09:05:29.352Z,993.3
2023-01-22T09:07:31.072Z,993.3
2023-01-22T09:09:32.777Z,993.3
2023-01-22T09:11:34.327Z,993.3
2023-01-22T09:13:36.308Z,993.3
2023-01-22T09:17:39.958Z,993.2
2023-01-22T09:19:41.713Z,993.2
2023-01-22T09:21:43.665Z,993.2
2023-01-22T09:23:44.883Z,993.2
2023-01-22T09:27:47.604Z,993.3
2023-01-22T09:29:49.204Z,993.3
2023-01-22T09:31:50.650Z,993.5
2023-01-22T09:33:52.476Z,993.4
2023-01-22T09:35:53.851Z,993.4
2023-01-22T09:37:55.142Z,993.5
2023-01-22T09:39:56.410Z,993.5
2023-01-22T09:41:57.733Z,993.5
2023-01-22T09:43:58.941Z,993.6
2023-01-22T09:46:00.860Z,993.4
2023-01-22T09:48:02.378Z,993.5
2023-01-22T09:50:03.703Z,993.6
2023-01-22T09:52:05.437Z,993.5
2023-01-22T09:54:06.297Z,993.5
2023-01-22T09:56:07.754Z,993.5
2023-01-22T09:58:08.948Z,993.5
2023-01-22T10:00:54.180Z,993.5
2023-01-22T10:02:55.387Z,993.5
2023-01-22T10:04:56.520Z,993.6
2023-01-22T10:06:58.209Z,993.6
2023-01-22T10:11:01.241Z,993.6
2023-01-22T10:13:02.465Z,993.6
2023-01-22T10:15:03.488Z,993.6
2023-01-22T10:17:04.546Z,993.8
2023-01-22T10:19:05.875Z,993.7
2023-01-22T10:21:07.715Z,993.7
2023-01-22T10:23:09.681Z,993.8
2023-01-22T10:25:11.467Z,993.7
2023-01-22T10:27:12.667Z,993.8
2023-01-22T10:29:14.501Z,993.7
2023-01-22T10:31:15.726Z,993.7
2023-01-22T10:33:16.617Z,993.9
2023-01-22T10:35:17.999Z,993.8
2023-01-22T10:37:19.949Z,993.8
2023-01-22T10:39:21.204Z,993.9
2023-01-22T10:41:22.992Z,993.8
2023-01-22T10:43:24.274Z,993.9
2023-01-22T10:45:25.710Z,993.8
2023-01-22T10:47:27.365Z,993.8
2023-01-22T10:49:28.867Z,993.9
2023-01-22T10:51:30.840Z,993.9
2023-01-22T10:53:32.458Z,993.9
2023-01-22T10:55:34.394Z,993.8
2023-01-22T10:57:36.228Z,993.9
2023-01-22T10:59:37.727Z,993.7
2023-01-22T11:01:39.093Z,993.9
2023-01-22T11:03:40.669Z,993.7
2023-01-22T11:05:42.232Z,993.8
2023-01-22T11:09:45.362Z,993.7
2023-01-22T11:11:47.248Z,993.8
2023-01-22T11:13:49.177Z,993.6
2023-01-22T11:15:50.264Z,993.7
2023-01-22T11:17:51.659Z,993.8
2023-01-22T11:19:53.202Z,993.7
2023-01-22T11:21:54.713Z,993.6
2023-01-22T11:23:56.248Z,993.7
2023-01-22T11:25:57.268Z,993.7
2023-01-22T11:27:59.021Z,993.7
2023-01-22T11:30:00.096Z,993.6
2023-01-22T11:32:01.864Z,993.7
2023-01-22T11:34:02.888Z,993.7
2023-01-22T11:36:04.656Z,993.8
2023-01-22T11:38:05.699Z,993.7
2023-01-22T11:40:07.408Z,993.8
2023-01-22T11:42:09.221Z,993.7
2023-01-22T11:44:10.621Z,993.7
2023-01-22T11:46:12.459Z,993.6
2023-01-22T11:48:14.338Z,993.6
2023-01-22T11:52:17.455Z,993.7
2023-01-22T11:54:19.298Z,993.8
2023-01-22T11:56:20.790Z,993.6
2023-01-22T11:58:22.220Z,993.7
2023-01-22T12:00:23.534Z,993.7
2023-01-22T12:02:25.284Z,993.6
2023-01-22T12:04:26.785Z,993.7
2023-01-22T12:06:27.768Z,993.6
2023-01-22T12:08:29.039Z,993.6
2023-01-22T12:10:30.746Z,993.6
2023-01-22T12:12:32.379Z,993.6
2023-01-22T12:14:34.155Z,993.6
2023-01-22T12:18:37.154Z,993.7
2023-01-22T12:20:38.536Z,993.7
2023-01-22T12:22:40.335Z,993.6
2023-01-22T12:24:41.496Z,993.7
2023-01-22T12:28:43.775Z,993.6
2023-01-22T12:30:45.638Z,993.6
2023-01-22T12:32:46.760Z,993.7
2023-01-22T12:34:48.094Z,993.7
2023-01-22T12:36:49.515Z,993.6
2023-01-22T12:38:50.625Z,993.7
2023-01-22T12:40:51.801Z,993.6
2023-01-22T12:42:52.955Z,993.5
2023-01-22T12:44:54.207Z,993.6
2023-01-22T12:46:55.478Z,993.6
2023-01-22T12:48:56.697Z,993.5
2023-01-22T12:50:58.408Z,993.5
2023-01-22T12:53:00.186Z,993.6
2023-01-22T12:55:01.880Z,993.5
2023-01-22T12:57:03.396Z,993.6
2023-01-22T12:59:05.295Z,993.6
2023-01-22T13:01:06.716Z,993.6
2023-01-22T13:03:07.811Z,993.6
2023-01-22T13:05:09.723Z,993.6
2023-01-22T13:07:11.378Z,993.6
2023-01-22T13:09:12.594Z,993.6
2023-01-22T13:11:13.812Z,993.6
2023-01-22T13:13:15.750Z,993.5
2023-01-22T13:17:18.886Z,993.5
2023-01-22T13:19:19.894Z,993.6
2023-01-22T13:21:21.612Z,993.7
2023-01-22T13:23:23.521Z,993.6
2023-01-22T13:25:24.551Z,993.6
2023-01-22T13:27:26.176Z,993.7
2023-01-22T13:29:27.935Z,993.7
2023-01-22T13:31:29.795Z,993.8
2023-01-22T13:33:30.917Z,993.7
2023-01-22T13:35:32.692Z,993.7
2023-01-22T13:37:34.070Z,993.7
2023-01-22T13:39:35.599Z,993.7
2023-01-22T13:41:37.440Z,993.8
2023-01-22T13:43:39.034Z,993.7
2023-01-22T13:45:40.342Z,993.8
2023-01-22T13:47:42.234Z,993.7
2023-01-22T13:49:43.438Z,993.8
2023-01-22T13:51:44.800Z,993.8
2023-01-22T13:53:46.089Z,993.8
2023-01-22T13:55:47.337Z,993.7
2023-01-22T13:59:49.773Z,993.8
2023-01-22T14:01:51.613Z,993.8
2023-01-22T14:03:52.809Z,993.8
2023-01-22T14:05:54.550Z,993.8
2023-01-22T14:07:56.220Z,993.7
2023-01-22T14:09:57.899Z,993.8
2023-01-22T14:11:59.155Z,993.7
2023-01-22T14:16:01.890Z,993.8
2023-01-22T14:18:03.564Z,993.7
2023-01-22T14:20:04.635Z,993.7
2023-01-22T14:22:06.616Z,993.9
2023-01-22T14:24:08.196Z,993.8
2023-01-22T14:26:09.446Z,993.9
2023-01-22T14:28:11.381Z,993.9
2023-01-22T14:30:12.520Z,994
2023-01-22T14:32:13.877Z,993.9
2023-01-22T14:34:15.164Z,993.9
2023-01-22T14:36:16.494Z,994
2023-01-22T14:38:18.306Z,994
2023-01-22T14:40:20.441Z,994
2023-01-22T14:42:21.305Z,994
2023-01-22T14:44:22.559Z,994
2023-01-22T14:46:24.520Z,994.1
2023-01-22T14:48:26.324Z,994
2023-01-22T14:50:27.682Z,994.1
2023-01-22T14:52:29.467Z,994.1
2023-01-22T14:54:30.480Z,994.1
2023-01-22T14:58:32.907Z,994
2023-01-22T15:00:34.196Z,994.2
2023-01-22T15:02:35.850Z,994.2
2023-01-22T15:04:37.654Z,994.1
2023-01-22T15:06:38.886Z,994.2
2023-01-22T15:08:40.396Z,994.3
2023-01-22T15:10:42.225Z,994.3
2023-01-22T15:12:43.878Z,994.3
2023-01-22T15:14:45.823Z,994.3
2023-01-22T15:16:47.450Z,994.2
2023-01-22T15:18:48.531Z,994.3
2023-01-22T15:20:50.135Z,994.3
2023-01-22T15:24:53.074Z,994.3
2023-01-22T15:26:54.835Z,994.3
2023-01-22T15:28:56.799Z,994.3
2023-01-22T15:31:05.822Z,994.3
2023-01-22T15:35:00.858Z,994.5
2023-01-22T15:37:02.371Z,994.5
2023-01-22T15:39:03.686Z,994.6
2023-01-22T15:41:05.676Z,994.5
2023-01-22T15:43:07.420Z,994.5
2023-01-22T15:45:08.742Z,994.6
2023-01-22T15:47:10.509Z,994.6
2023-01-22T15:49:12.126Z,994.5
2023-01-22T15:51:14.009Z,994.6
2023-01-22T15:53:15.888Z,994.5
2023-01-22T15:55:17.259Z,994.5
2023-01-22T15:57:18.815Z,994.6
2023-01-22T15:59:20.823Z,994.6
2023-01-22T16:01:22.741Z,994.7
2023-01-22T16:03:24.622Z,994.7
2023-01-22T16:07:28.062Z,994.7
2023-01-22T16:09:29.801Z,994.7
2023-01-22T16:11:31.183Z,994.7
2023-01-22T16:13:32.571Z,994.8
2023-01-22T16:17:35.860Z,994.8
2023-01-22T16:19:37.593Z,994.7
2023-01-22T16:21:38.831Z,994.7
2023-01-22T16:23:40.861Z,994.7
2023-01-22T16:25:42.684Z,994.8
2023-01-22T16:27:43.788Z,994.8
2023-01-22T16:29:45.798Z,994.8
2023-01-22T16:31:47.498Z,994.8
2023-01-22T16:33:48.866Z,994.8
2023-01-22T16:35:50.343Z,994.9
2023-01-22T16:37:51.838Z,994.9
2023-01-22T16:39:53.390Z,995
2023-01-22T16:41:54.730Z,994.9
2023-01-22T16:43:56.316Z,995
2023-01-22T16:44:40.212Z,995
2023-01-22T16:46:41.876Z,994.9
2023-01-22T16:48:43.727Z,995
2023-01-22T16:50:45.501Z,994.9
2023-01-22T16:54:48.668Z,994.9
2023-01-22T16:56:50.117Z,995
2023-01-22T16:58:51.760Z,995
2023-01-22T17:00:53.126Z,995
2023-01-22T17:02:54.317Z,994.9
2023-01-22T17:04:55.541Z,994.9
2023-01-22T17:06:56.639Z,994.9
2023-01-22T17:08:58.311Z,994.9
2023-01-22T17:10:59.471Z,994.9
2023-01-22T17:13:00.554Z,995
2023-01-22T17:15:02.214Z,994.9
2023-01-22T17:17:03.832Z,994.9
2023-01-22T17:19:05.322Z,994.9
2023-01-22T17:21:07.361Z,995
2023-01-22T17:23:08.645Z,995
2023-01-22T17:25:10.562Z,995
2023-01-22T17:27:11.883Z,995
2023-01-22T17:29:13.369Z,995
2023-01-22T17:31:14.558Z,995.1
2023-01-22T17:33:16.249Z,995.1
2023-01-22T17:35:17.724Z,995
2023-01-22T17:37:18.659Z,995.1
2023-01-22T17:39:20.054Z,995.3
2023-01-22T17:41:21.344Z,995.2
2023-01-22T17:43:22.978Z,995.3
2023-01-22T17:45:24.610Z,995.3
2023-01-22T17:47:25.975Z,995.4
2023-01-22T17:49:27.896Z,995.2
2023-01-22T17:51:29.090Z,995.3
2023-01-22T17:53:30.330Z,995.3
2023-01-22T17:55:32.121Z,995.3
2023-01-22T17:57:34.019Z,995.4
2023-01-22T17:59:35.758Z,995.4
2023-01-22T18:01:37.703Z,995.4
2023-01-22T18:03:38.840Z,995.5
2023-01-22T18:05:40.638Z,995.5
2023-01-22T18:07:42.505Z,995.6
2023-01-22T18:09:43.721Z,995.6
2023-01-22T18:11:45.686Z,995.6
2023-01-22T18:15:48.796Z,995.7
2023-01-22T18:17:50.066Z,995.6
2023-01-22T18:19:51.869Z,995.7
2023-01-22T18:21:53.139Z,995.6
2023-01-22T18:23:54.771Z,995.7
2023-01-22T18:25:56.148Z,995.7
2023-01-22T18:27:57.553Z,995.7
2023-01-22T18:29:58.799Z,995.7
2023-01-22T18:32:00.593Z,995.7
2023-01-22T18:34:02.113Z,995.9
2023-01-22T18:36:03.843Z,995.7
2023-01-22T18:38:05.373Z,995.9
2023-01-22T18:40:07.192Z,995.9
2023-01-22T18:42:08.990Z,995.8
2023-01-22T18:44:11.014Z,995.8
2023-01-22T18:46:12.929Z,995.9
2023-01-22T18:48:14.243Z,996
2023-01-22T18:50:16.175Z,996.1
2023-01-22T18:52:17.365Z,995.9
2023-01-22T18:54:19.325Z,996.1
2023-01-22T18:56:20.424Z,995.9
2023-01-22T18:58:22.256Z,996.1
2023-01-22T19:00:24.282Z,996
2023-01-22T19:02:26.087Z,996
2023-01-22T19:04:27.909Z,996.1
2023-01-22T19:06:29.367Z,995.9
2023-01-22T19:08:30.938Z,996
2023-01-22T19:10:32.217Z,996
2023-01-22T19:12:34.166Z,996.1
2023-01-22T19:14:35.468Z,996.1
2023-01-22T19:16:37.412Z,996
2023-01-22T19:18:38.499Z,996
2023-01-22T19:20:39.678Z,996.1
2023-01-22T19:22:41.082Z,996.1
2023-01-22T19:24:42.233Z,996
2023-01-22T19:26:45.983Z,996.2
2023-01-22T19:28:45.299Z,996.1
2023-01-22T19:30:46.636Z,996.2
2023-01-22T19:32:47.852Z,996.2
2023-01-22T19:34:49.131Z,996.2
2023-01-22T19:36:50.791Z,996.2
2023-01-22T19:38:52.427Z,996.2
2023-01-22T19:40:53.673Z,996.3
2023-01-22T19:42:54.765Z,996.4
2023-01-22T19:44:56.374Z,996.3
2023-01-22T19:46:57.761Z,996.3
2023-01-22T19:48:59.346Z,996.3
2023-01-22T19:51:00.772Z,996.2
2023-01-22T19:53:02.125Z,996.3
2023-01-22T19:57:05.273Z,996.2
2023-01-22T19:59:06.911Z,996.3
2023-01-22T20:01:08.363Z,996.3
2023-01-22T20:03:10.090Z,996.2
2023-01-22T20:05:11.230Z,996.3
2023-01-22T20:07:12.394Z,996.3
2023-01-22T20:09:13.515Z,996.2
2023-01-22T20:11:15.290Z,996.3
2023-01-22T20:13:16.675Z,996.3
2023-01-22T20:15:18.590Z,996.2
2023-01-22T20:17:19.714Z,996.3
2023-01-22T20:19:21.121Z,996.4
2023-01-22T20:23:23.970Z,996.2
2023-01-22T20:25:25.640Z,996.2
2023-01-22T20:27:26.466Z,996.3
2023-01-22T20:29:27.792Z,996.3
2023-01-22T20:33:31.093Z,996.3
2023-01-22T20:35:32.295Z,996.2
2023-01-22T20:37:33.897Z,996.4
2023-01-22T20:39:35.550Z,996.3
2023-01-22T20:41:37.516Z,996.3
2023-01-22T20:43:39.332Z,996.4
2023-01-22T20:45:41.335Z,996.2
2023-01-22T20:47:43.227Z,996.4
2023-01-22T20:49:45.155Z,996.4
2023-01-22T20:51:46.695Z,996.4
2023-01-22T20:53:47.711Z,996.4
2023-01-22T20:55:49.180Z,996.4
2023-01-22T20:57:50.616Z,996.4
2023-01-22T20:59:52.537Z,996.5
2023-01-22T21:01:54.457Z,996.5
2023-01-22T21:05:57.615Z,996.5
2023-01-22T21:07:59.450Z,996.5
2023-01-22T21:10:01.365Z,996.4
2023-01-22T21:12:03.048Z,996.5
2023-01-22T21:14:04.790Z,996.4
2023-01-22T21:16:05.874Z,996.4
2023-01-22T21:18:07.804Z,996.5
2023-01-22T21:20:09.630Z,996.5
2023-01-22T21:22:11.420Z,996.5
2023-01-22T21:24:12.792Z,996.5
2023-01-22T21:26:14.312Z,996.5
2023-01-22T21:28:15.791Z,996.5
2023-01-22T21:30:17.371Z,996.4
2023-01-22T21:32:26.451Z,996.4
2023-01-22T21:34:19.915Z,996.5
2023-01-22T21:36:21.084Z,996.5
2023-01-22T21:38:22.845Z,996.4
2023-01-22T21:40:24.396Z,996.4
2023-01-22T21:42:25.751Z,996.5
2023-01-22T21:44:26.817Z,996.6
2023-01-22T21:46:28.808Z,996.6
2023-01-22T21:48:30.154Z,996.6
2023-01-22T21:50:31.199Z,996.7
2023-01-22T21:52:32.708Z,996.7
2023-01-22T21:54:34.157Z,996.7
2023-01-22T21:56:35.989Z,996.7
2023-01-22T21:58:37.106Z,996.7
2023-01-22T22:00:38.993Z,996.7
2023-01-22T22:04:42.041Z,996.8
2023-01-22T22:06:43.230Z,996.7
2023-01-22T22:08:45.120Z,996.8
2023-01-22T22:10:46.767Z,996.8
2023-01-22T22:12:48.099Z,996.8
2023-01-22T22:14:49.741Z,996.9
2023-01-22T22:16:51.212Z,996.8
2023-01-22T22:18:53.135Z,996.8
2023-01-22T22:20:54.971Z,996.9
2023-01-22T22:22:56.477Z,996.9
2023-01-22T22:24:58.034Z,996.9
2023-01-22T22:26:59.569Z,996.9
2023-01-22T22:29:01.535Z,996.8
2023-01-22T22:31:03.480Z,996.9
2023-01-22T22:33:04.895Z,996.9
2023-01-22T22:35:05.955Z,996.9
2023-01-22T22:37:07.922Z,996.9
2023-01-22T22:39:09.243Z,996.9
2023-01-22T22:41:10.894Z,996.9
2023-01-22T22:43:12.042Z,996.9
2023-01-22T22:47:14.974Z,996.9
2023-01-22T22:49:16.668Z,996.9
2023-01-22T22:51:17.980Z,996.9
2023-01-22T22:53:19.142Z,996.8
2023-01-22T22:55:21.071Z,996.9
2023-01-22T22:57:22.702Z,997
2023-01-22T22:59:24.756Z,997
2023-01-22T23:01:25.935Z,997
2023-01-22T23:03:27.633Z,997
2023-01-22T23:05:29.125Z,996.9
2023-01-22T23:07:30.849Z,996.9
2023-01-22T23:09:32.737Z,997
2023-01-22T23:11:34.589Z,997
2023-01-22T23:13:35.823Z,997
2023-01-22T23:15:37.305Z,997
2023-01-22T23:17:39.308Z,997
2023-01-22T23:19:41.287Z,996.9
2023-01-22T23:21:42.630Z,996.9
2023-01-22T23:23:44.142Z,997
2023-01-22T23:25:46.037Z,996.9
2023-01-22T23:29:48.782Z,997
2023-01-22T23:30:32.764Z,997
2023-01-22T23:34:36.012Z,996.9
2023-01-22T23:36:37.416Z,997
2023-01-22T23:38:39.480Z,997
2023-01-22T23:40:41.038Z,997
2023-01-22T23:42:42.965Z,997
2023-01-22T23:44:44.341Z,997.1
2023-01-22T23:46:46.149Z,997.1
2023-01-22T23:48:47.623Z,997.1
2023-01-22T23:50:48.977Z,997
2023-01-22T23:52:50.952Z,997
2023-01-22T23:54:52.931Z,996.9
2023-01-22T23:56:54.127Z,996.8
2023-01-22T23:58:55.786Z,996.9
